Time;durP1;ratioP1;P1;durP2;ratioP2;P2;SDS_P1;SDS_P2;PMS_P1;PMS_P2;Temp;Humidity;BMP_temperature;BMP_pressure;BME280_temperature;BME280_humidity;BME280_pressure;Samples;Min_cycle;Max_cycle;Signal;HPM_P1;HPM_P2
2022/10/12 00:00:22;;;;;;;12.32;5.85;;;8.80;99.90;;;;;;5089400;28;20034;-42
2022/10/12 00:02:47;;;;;;;9.38;6.32;;;8.70;99.90;;;;;;5089355;28;20060;-43
2022/10/12 00:05:13;;;;;;;10.85;5.45;;;8.70;99.90;;;;;;5089756;28;21780;-43
2022/10/12 00:07:39;;;;;;;11.10;5.75;;;8.70;99.90;;;;;;5089723;28;20039;-43
2022/10/12 00:10:04;;;;;;;10.55;5.57;;;8.90;99.90;;;;;;5089818;28;20075;-43
2022/10/12 00:12:30;;;;;;;9.98;6.00;;;8.70;99.90;;;;;;5087975;28;20031;-43
2022/10/12 00:14:56;;;;;;;10.85;6.03;;;8.80;99.90;;;;;;5089522;28;20068;-45
2022/10/12 00:17:22;;;;;;;14.30;6.18;;;8.70;99.90;;;;;;5089564;28;20064;-42
2022/10/12 00:19:49;;;;;;;11.52;6.38;;;8.80;99.90;;;;;;5089825;28;20429;-44
2022/10/12 00:22:14;;;;;;;14.95;6.55;;;8.70;99.90;;;;;;5087905;28;20073;-43
2022/10/12 00:24:40;;;;;;;14.88;7.00;;;8.60;99.90;;;;;;5089542;28;20032;-42
2022/10/12 00:27:06;;;;;;;12.57;6.70;;;8.70;99.90;;;;;;5089154;28;20567;-46
2022/10/12 00:29:31;;;;;;;15.27;6.47;;;8.60;99.90;;;;;;5088180;28;20040;-43
2022/10/12 00:31:57;;;;;;;16.83;6.47;;;8.70;99.90;;;;;;5086631;28;20123;-41
2022/10/12 00:34:23;;;;;;;11.25;5.85;;;8.70;99.90;;;;;;5070829;28;20064;-43
2022/10/12 00:36:48;;;;;;;13.10;5.75;;;8.70;99.90;;;;;;5087841;28;20032;-43
2022/10/12 00:39:14;;;;;;;13.30;6.05;;;8.90;99.90;;;;;;5089440;28;20032;-43
2022/10/12 00:41:42;;;;;;;12.77;6.50;;;8.60;99.90;;;;;;5088900;28;20040;-42
2022/10/12 00:44:36;;;;;;;13.20;5.57;;;8.50;99.90;;;;;;5092800;28;20103;-43
2022/10/12 00:47:06;;;;;;;10.43;6.40;;;8.40;99.90;;;;;;5093271;28;20039;-43
2022/10/12 00:49:33;;;;;;;13.65;6.20;;;8.50;99.90;;;;;;5093125;28;20029;-43
2022/10/12 00:52:04;;;;;;;11.70;5.90;;;8.50;99.90;;;;;;5093409;28;20020;-41
2022/10/12 00:54:35;;;;;;;11.55;5.82;;;8.50;99.90;;;;;;5092478;28;20036;-47
2022/10/12 00:57:03;;;;;;;12.10;6.07;;;8.60;99.90;;;;;;5093389;28;20036;-43
2022/10/12 00:59:42;;;;;;;15.55;6.40;;;8.60;99.90;;;;;;5092763;28;20040;-44
2022/10/12 01:02:08;;;;;;;14.50;6.45;;;8.60;99.90;;;;;;5093044;28;20056;-44
2022/10/12 01:04:35;;;;;;;12.82;6.40;;;8.60;99.90;;;;;;5092981;28;20090;-43
2022/10/12 01:07:01;;;;;;;18.83;5.97;;;8.60;99.90;;;;;;5093129;28;20048;-42
2022/10/12 01:09:27;;;;;;;12.50;5.82;;;8.70;99.90;;;;;;5092853;28;20051;-43
2022/10/12 01:11:53;;;;;;;11.80;6.22;;;8.60;99.90;;;;;;5092831;28;20040;-44
2022/10/12 01:14:19;;;;;;;12.15;6.50;;;8.60;99.90;;;;;;5090619;28;20048;-43
2022/10/12 01:16:53;;;;;;;13.88;6.35;;;8.50;99.90;;;;;;5090402;28;20036;-44
2022/10/12 01:19:29;;;;;;;13.07;6.18;;;8.60;99.90;;;;;;5092647;28;20085;-42
2022/10/12 01:22:17;;;;;;;13.43;6.03;;;8.60;99.90;;;;;;5092782;28;20033;-43
2022/10/12 01:24:48;;;;;;;11.32;6.00;;;8.50;99.90;;;;;;5092447;28;20048;-45
2022/10/12 01:27:13;;;;;;;11.27;5.55;;;8.50;99.90;;;;;;5092469;28;20044;-44
2022/10/12 01:30:16;;;;;;;13.70;5.75;;;8.60;99.90;;;;;;5092487;28;20035;-42
2022/10/12 01:33:13;;;;;;;11.43;5.75;;;8.60;99.90;;;;;;5091559;28;20052;-43
2022/10/12 01:35:45;;;;;;;11.88;5.68;;;8.60;99.90;;;;;;5091734;28;20044;-43
2022/10/12 01:38:17;;;;;;;14.23;6.22;;;8.50;99.90;;;;;;5092892;28;20040;-43
2022/10/12 01:40:58;;;;;;;15.88;6.68;;;8.50;99.90;;;;;;5091739;28;20038;-43
2022/10/12 01:43:32;;;;;;;14.02;6.28;;;8.50;99.90;;;;;;5090605;28;20047;-43
2022/10/12 01:46:24;;;;;;;11.50;5.95;;;8.50;99.90;;;;;;5092003;28;20036;-42
2022/10/12 01:48:54;;;;;;;16.58;6.38;;;8.60;99.90;;;;;;5080633;28;20372;-43
2022/10/12 01:51:37;;;;;;;12.60;6.18;;;8.60;99.90;;;;;;5092223;28;20514;-42
2022/10/12 01:54:06;;;;;;;19.27;6.40;;;8.60;99.90;;;;;;5091378;28;20106;-42
2022/10/12 01:56:41;;;;;;;17.08;6.28;;;8.70;99.90;;;;;;5092552;28;20277;-44
2022/10/12 01:59:11;;;;;;;10.98;5.63;;;8.50;99.90;;;;;;5092228;28;20040;-43
2022/10/12 02:01:48;;;;;;;10.50;5.75;;;8.70;99.90;;;;;;5090123;28;20499;-43
2022/10/12 02:04:38;;;;;;;14.05;5.57;;;8.50;99.90;;;;;;5091401;28;20050;-43
2022/10/12 02:07:09;;;;;;;12.43;5.10;;;8.60;99.90;;;;;;5092021;28;20425;-43
2022/10/12 02:09:37;;;;;;;13.10;5.55;;;8.70;99.90;;;;;;5092305;28;20513;-46
2022/10/12 02:12:11;;;;;;;14.65;5.85;;;8.70;99.90;;;;;;5092147;28;20040;-43
2022/10/12 02:14:47;;;;;;;13.88;5.25;;;8.50;99.90;;;;;;5090805;28;20036;-43
2022/10/12 02:17:16;;;;;;;17.40;5.85;;;8.60;99.90;;;;;;5091340;28;20080;-43
2022/10/12 02:19:47;;;;;;;13.45;5.68;;;8.50;99.90;;;;;;5091168;28;20543;-44
2022/10/12 02:22:15;;;;;;;12.80;5.05;;;8.50;99.90;;;;;;5089867;28;20040;-43
2022/10/12 02:24:45;;;;;;;9.48;4.78;;;8.60;99.90;;;;;;5091881;28;20048;-42
2022/10/12 02:27:14;;;;;;;13.90;5.47;;;8.70;99.90;;;;;;5091556;28;20055;-45
2022/10/12 02:29:43;;;;;;;11.98;6.00;;;8.70;99.90;;;;;;5091098;28;20075;-42
2022/10/12 02:32:41;;;;;;;18.52;5.65;;;8.60;99.90;;;;;;5088875;28;20471;-43
2022/10/12 02:35:11;;;;;;;14.93;5.45;;;8.70;99.90;;;;;;5089684;28;20068;-45
2022/10/12 02:38:00;;;;;;;17.02;5.90;;;8.60;99.90;;;;;;5091198;28;20131;-41
2022/10/12 02:40:34;;;;;;;12.60;5.28;;;8.70;99.90;;;;;;5090874;28;20032;-46
2022/10/12 02:43:12;;;;;;;13.80;5.47;;;8.50;99.90;;;;;;5089908;28;20040;-42
2022/10/12 02:45:42;;;;;;;16.45;5.70;;;8.60;99.90;;;;;;5090443;28;20203;-45
2022/10/12 02:48:12;;;;;;;15.75;5.60;;;8.60;99.90;;;;;;5089468;28;20047;-42
2022/10/12 02:50:38;;;;;;;12.00;5.18;;;8.50;99.90;;;;;;5091073;28;20044;-43
2022/10/12 02:53:04;;;;;;;13.80;5.80;;;8.40;99.90;;;;;;5091247;28;20391;-42
2022/10/12 02:55:30;;;;;;;12.18;5.30;;;8.50;99.90;;;;;;5091056;28;20470;-42
2022/10/12 02:57:56;;;;;;;12.88;5.68;;;8.50;99.90;;;;;;5091140;28;20173;-43
2022/10/12 03:00:22;;;;;;;16.15;5.88;;;8.30;99.90;;;;;;5090918;28;20119;-44
2022/10/12 03:02:47;;;;;;;12.65;5.90;;;8.40;99.90;;;;;;5090918;28;20039;-44
2022/10/12 03:05:13;;;;;;;13.30;5.72;;;8.40;99.90;;;;;;5090302;28;20360;-43
2022/10/12 03:07:39;;;;;;;17.65;6.70;;;8.10;99.90;;;;;;5090257;28;20040;-43
2022/10/12 03:10:05;;;;;;;17.92;5.80;;;8.20;99.90;;;;;;5089165;28;20520;-44
2022/10/12 03:12:31;;;;;;;12.73;5.18;;;8.10;99.90;;;;;;5090643;28;20123;-42
2022/10/12 03:14:56;;;;;;;15.23;5.43;;;8.10;99.90;;;;;;5090412;28;20230;-41
2022/10/12 03:17:22;;;;;;;16.25;5.63;;;8.00;99.90;;;;;;5090829;28;20383;-41
2022/10/12 03:19:48;;;;;;;12.35;5.32;;;8.00;99.90;;;;;;5090748;28;20036;-43
2022/10/12 03:22:13;;;;;;;9.02;5.03;;;8.10;99.90;;;;;;5090502;28;20498;-43
2022/10/12 03:24:39;;;;;;;12.70;5.40;;;7.90;99.90;;;;;;5090510;28;20538;-42
2022/10/12 03:27:05;;;;;;;11.93;5.13;;;8.10;99.90;;;;;;5090621;28;20181;-43
2022/10/12 03:29:30;;;;;;;16.42;6.47;;;7.90;99.90;;;;;;5089282;28;20475;-42
2022/10/12 03:31:56;;;;;;;15.73;5.20;;;7.90;99.90;;;;;;5088526;28;20047;-43
2022/10/12 03:34:22;;;;;;;10.52;4.90;;;7.80;99.90;;;;;;5088706;28;20059;-44
2022/10/12 03:36:47;;;;;;;12.63;5.30;;;7.90;99.90;;;;;;5090662;28;20111;-43
2022/10/12 03:39:13;;;;;;;16.23;5.57;;;7.80;99.90;;;;;;5091021;28;20088;-41
2022/10/12 03:41:39;;;;;;;13.45;5.18;;;7.90;99.90;;;;;;5090042;28;20134;-42
2022/10/12 03:44:04;;;;;;;13.38;5.53;;;7.80;99.90;;;;;;5089475;28;20054;-42
2022/10/12 03:46:30;;;;;;;13.73;5.35;;;7.90;99.90;;;;;;5090363;28;20039;-47
2022/10/12 03:48:55;;;;;;;13.55;5.20;;;7.80;99.90;;;;;;5088624;28;20044;-42
2022/10/12 03:51:21;;;;;;;13.65;5.50;;;7.70;99.90;;;;;;5090076;28;20425;-42
2022/10/12 03:53:47;;;;;;;13.50;5.30;;;7.90;99.90;;;;;;5088530;28;20032;-44
2022/10/12 03:56:12;;;;;;;12.77;5.05;;;7.90;99.90;;;;;;5090017;28;20437;-42
2022/10/12 03:58:38;;;;;;;15.70;5.47;;;7.90;99.90;;;;;;5089919;28;20486;-44
2022/10/12 04:01:04;;;;;;;13.25;5.57;;;7.70;99.90;;;;;;5089980;28;20467;-43
2022/10/12 04:03:29;;;;;;;16.40;5.13;;;7.70;99.90;;;;;;5089773;28;20546;-42
2022/10/12 04:05:57;;;;;;;20.77;5.45;;;7.80;99.90;;;;;;5090052;28;20422;-44
2022/10/12 04:08:25;;;;;;;14.98;5.25;;;7.80;99.90;;;;;;5089586;28;20089;-41
2022/10/12 04:10:51;;;;;;;10.15;4.78;;;7.70;99.90;;;;;;5071825;28;20070;-42
2022/10/12 04:13:18;;;;;;;12.60;5.85;;;7.80;99.90;;;;;;5088851;28;20044;-43
2022/10/12 04:15:44;;;;;;;14.65;4.95;;;7.60;99.90;;;;;;5088826;28;20390;-41
2022/10/12 04:18:10;;;;;;;10.93;5.13;;;7.70;99.90;;;;;;5087989;28;20040;-44
2022/10/12 04:20:35;;;;;;;14.65;5.57;;;7.80;99.90;;;;;;5089669;28;20032;-44
2022/10/12 04:23:01;;;;;;;14.35;5.55;;;7.60;99.90;;;;;;5089359;28;20039;-42
2022/10/12 04:25:27;;;;;;;17.27;5.70;;;7.70;99.90;;;;;;5089182;28;20035;-44
2022/10/12 04:27:52;;;;;;;15.70;4.63;;;7.70;99.90;;;;;;5089399;28;20043;-41
2022/10/12 04:30:18;;;;;;;11.88;5.15;;;7.40;99.90;;;;;;5087245;28;20036;-44
2022/10/12 04:32:44;;;;;;;12.73;5.18;;;7.50;99.90;;;;;;5089199;28;20406;-42
2022/10/12 04:35:10;;;;;;;11.68;4.88;;;7.60;99.90;;;;;;5089441;28;20574;-43
2022/10/12 04:37:36;;;;;;;9.73;4.63;;;7.30;99.90;;;;;;5089130;28;20032;-42
2022/10/12 04:40:02;;;;;;;13.52;4.75;;;7.40;99.90;;;;;;5087837;28;20115;-44
2022/10/12 04:42:27;;;;;;;12.27;4.57;;;7.30;99.90;;;;;;5088492;28;20036;-42
2022/10/12 04:44:53;;;;;;;12.07;4.38;;;7.20;99.90;;;;;;5088726;28;20536;-44
2022/10/12 04:47:19;;;;;;;8.88;4.32;;;7.10;99.90;;;;;;5089615;28;20083;-42
2022/10/12 04:49:45;;;;;;;17.73;5.05;;;7.10;99.90;;;;;;5089070;28;20122;-41
2022/10/12 04:52:10;;;;;;;10.60;4.47;;;7.10;99.90;;;;;;5089456;28;20036;-43
2022/10/12 04:54:36;;;;;;;12.90;4.82;;;7.20;99.90;;;;;;5090217;28;20048;-44
2022/10/12 04:57:02;;;;;;;10.48;4.85;;;7.20;99.90;;;;;;5089545;28;20032;-42
2022/10/12 04:59:27;;;;;;;14.95;5.47;;;7.20;99.90;;;;;;5089397;28;20036;-42
2022/10/12 05:01:53;;;;;;;13.73;5.45;;;7.00;99.90;;;;;;5085122;28;20143;-43
2022/10/12 05:04:19;;;;;;;11.85;4.65;;;7.20;99.90;;;;;;5089129;28;20433;-42
2022/10/12 05:06:45;;;;;;;14.10;5.10;;;7.10;99.90;;;;;;5089497;28;20040;-43
2022/10/12 05:09:11;;;;;;;12.80;5.63;;;7.10;99.90;;;;;;5088493;28;20079;-44
2022/10/12 05:11:37;;;;;;;12.32;5.40;;;7.10;99.90;;;;;;5087908;28;20071;-43
2022/10/12 05:14:03;;;;;;;12.95;5.00;;;6.90;99.90;;;;;;5088752;28;20127;-43
2022/10/12 05:16:28;;;;;;;13.30;5.45;;;7.10;99.90;;;;;;5087633;28;20567;-42
2022/10/12 05:18:54;;;;;;;10.23;5.35;;;7.00;99.90;;;;;;5089015;28;20081;-46
2022/10/12 05:21:20;;;;;;;9.43;6.00;;;6.90;99.90;;;;;;5089220;28;20044;-41
2022/10/12 05:23:52;;;;;;;18.90;6.55;;;6.90;99.90;;;;;;5088797;28;20036;-44
2022/10/12 05:26:18;;;;;;;12.88;5.07;;;7.00;99.90;;;;;;5089140;28;20365;-44
2022/10/12 05:28:43;;;;;;;14.90;5.53;;;6.90;99.90;;;;;;5088945;28;20090;-45
2022/10/12 05:31:09;;;;;;;16.90;5.95;;;6.90;99.90;;;;;;5093222;28;20032;-43
2022/10/12 05:33:35;;;;;;;13.00;5.65;;;6.90;99.90;;;;;;5093009;28;20096;-40
2022/10/12 05:36:01;;;;;;;12.90;5.47;;;6.80;99.90;;;;;;5092863;28;20564;-43
2022/10/12 05:38:26;;;;;;;15.05;5.78;;;6.90;99.90;;;;;;5091035;28;20040;-43
2022/10/12 05:40:53;;;;;;;15.90;5.97;;;6.90;99.90;;;;;;5092535;28;20027;-44
2022/10/12 05:43:18;;;;;;;16.08;6.13;;;6.80;99.90;;;;;;5092196;28;20089;-41
2022/10/12 05:45:44;;;;;;;13.45;5.90;;;6.80;99.90;;;;;;5089472;28;20572;-45
2022/10/12 05:48:10;;;;;;;14.85;5.65;;;6.60;99.90;;;;;;5091335;28;20071;-42
2022/10/12 05:50:35;;;;;;;15.10;5.90;;;6.80;99.90;;;;;;5091873;28;20090;-44
2022/10/12 05:53:01;;;;;;;17.02;6.82;;;6.60;99.90;;;;;;5092225;28;20051;-42
2022/10/12 05:55:27;;;;;;;19.25;6.05;;;6.50;99.90;;;;;;5092476;28;20368;-43
2022/10/12 05:57:52;;;;;;;14.93;6.15;;;6.70;99.90;;;;;;5092443;28;20040;-42
2022/10/12 06:00:18;;;;;;;13.20;5.10;;;6.70;99.90;;;;;;5092354;28;20471;-45
2022/10/12 06:02:44;;;;;;;14.73;6.28;;;6.50;99.90;;;;;;5092051;28;20051;-42
2022/10/12 06:05:10;;;;;;;13.07;6.05;;;6.50;99.90;;;;;;5092243;28;20044;-45
2022/10/12 06:07:36;;;;;;;14.98;6.35;;;6.50;99.90;;;;;;5092003;28;20122;-41
2022/10/12 06:10:01;;;;;;;15.85;5.82;;;6.50;99.90;;;;;;5091876;28;20043;-45
2022/10/12 06:12:27;;;;;;;10.88;5.18;;;6.40;99.90;;;;;;5091699;28;20040;-41
2022/10/12 06:14:53;;;;;;;11.82;5.97;;;6.40;99.90;;;;;;5091540;28;20040;-43
2022/10/12 06:17:18;;;;;;;11.68;5.68;;;6.30;99.90;;;;;;5090451;28;20054;-43
2022/10/12 06:19:44;;;;;;;9.55;5.65;;;6.50;99.90;;;;;;5091873;28;20435;-44
2022/10/12 06:22:10;;;;;;;12.20;6.10;;;6.40;99.90;;;;;;5091529;28;20079;-43
2022/10/12 06:24:36;;;;;;;17.90;6.68;;;6.30;99.90;;;;;;5091915;28;20498;-45
2022/10/12 06:27:02;;;;;;;13.95;6.18;;;6.30;99.90;;;;;;5091861;28;20036;-43
2022/10/12 06:29:27;;;;;;;16.65;6.20;;;6.60;99.90;;;;;;5092505;28;20040;-41
2022/10/12 06:31:53;;;;;;;13.65;6.22;;;6.60;99.90;;;;;;5089093;28;20479;-42
2022/10/12 06:34:19;;;;;;;13.82;6.50;;;6.60;99.90;;;;;;5090854;28;20048;-42
2022/10/12 06:36:45;;;;;;;17.30;7.25;;;6.50;99.90;;;;;;5091591;28;20555;-41
2022/10/12 06:39:11;;;;;;;17.23;7.30;;;6.70;99.90;;;;;;5091098;28;20127;-42
2022/10/12 06:41:37;;;;;;;15.35;7.65;;;6.70;99.90;;;;;;5088954;28;20039;-43
2022/10/12 06:44:04;;;;;;;18.70;8.23;;;6.60;99.90;;;;;;5091696;28;20114;-42
2022/10/12 06:46:29;;;;;;;16.48;7.47;;;6.90;99.90;;;;;;5091415;28;20498;-42
2022/10/12 06:48:55;;;;;;;17.52;8.07;;;6.90;99.90;;;;;;5089800;28;20036;-42
2022/10/12 06:51:21;;;;;;;17.63;8.85;;;6.80;99.90;;;;;;5090398;28;20036;-43
2022/10/12 06:53:46;;;;;;;17.80;8.73;;;7.00;99.90;;;;;;5090778;28;20042;-42
2022/10/12 06:56:12;;;;;;;15.32;8.90;;;7.00;99.90;;;;;;5087221;28;20064;-45
2022/10/12 06:58:38;;;;;;;17.02;8.98;;;7.10;99.90;;;;;;5082488;28;20113;-40
2022/10/12 07:01:06;;;;;;;16.95;9.35;;;7.20;99.90;;;;;;5082509;28;20143;-42
2022/10/12 07:03:32;;;;;;;19.35;9.45;;;7.10;99.90;;;;;;5081900;28;20386;-43
2022/10/12 07:06:09;;;;;;;20.13;8.95;;;7.40;99.90;;;;;;5080945;28;20396;-42
2022/10/12 07:08:35;;;;;;;17.05;8.68;;;7.40;99.90;;;;;;5080043;28;20119;-41
2022/10/12 07:11:03;;;;;;;19.63;10.18;;;7.40;99.90;;;;;;5081666;28;20436;-43
2022/10/12 07:13:29;;;;;;;18.25;10.15;;;7.50;99.90;;;;;;5080200;28;20052;-41
2022/10/12 07:15:54;;;;;;;20.10;10.15;;;7.30;99.90;;;;;;5081662;28;20032;-43
2022/10/12 07:18:20;;;;;;;22.67;10.35;;;7.30;99.90;;;;;;5079051;28;20038;-42
2022/10/12 07:20:46;;;;;;;18.40;10.27;;;7.40;99.90;;;;;;5080293;28;20036;-41
2022/10/12 07:23:12;;;;;;;20.70;10.45;;;7.50;99.90;;;;;;5080118;28;20540;-42
2022/10/12 07:25:37;;;;;;;17.48;10.05;;;7.40;99.90;;;;;;5079621;28;20048;-42
2022/10/12 07:28:05;;;;;;;19.73;10.52;;;7.30;99.90;;;;;;5073867;28;20070;-42
2022/10/12 07:30:31;;;;;;;19.52;10.35;;;7.40;99.90;;;;;;5068409;28;21024;-43
2022/10/12 07:32:56;;;;;;;20.02;10.48;;;7.70;99.90;;;;;;5072763;28;20159;-44
2022/10/12 07:35:22;;;;;;;17.95;10.43;;;7.30;99.90;;;;;;5081102;28;20115;-43
2022/10/12 07:37:48;;;;;;;18.42;10.10;;;7.50;99.90;;;;;;5078032;28;20038;-43
2022/10/12 07:40:14;;;;;;;17.88;9.63;;;7.50;99.90;;;;;;5079472;28;20162;-42
2022/10/12 07:42:40;;;;;;;18.55;10.13;;;7.30;99.90;;;;;;5080273;28;20446;-43
2022/10/12 07:45:06;;;;;;;17.23;10.98;;;7.20;99.90;;;;;;5078775;28;20089;-41
2022/10/12 07:47:32;;;;;;;19.50;10.40;;;7.40;99.90;;;;;;5079279;28;20046;-41
2022/10/12 07:49:57;;;;;;;23.15;11.00;;;7.50;99.90;;;;;;5080898;28;20410;-43
2022/10/12 07:52:26;;;;;;;19.73;10.70;;;7.50;99.90;;;;;;5080422;28;20407;-44
2022/10/12 07:54:51;;;;;;;21.45;10.73;;;7.50;99.90;;;;;;5080944;28;20055;-42
2022/10/12 07:57:17;;;;;;;24.15;11.07;;;7.60;99.90;;;;;;5080572;28;20649;-42
2022/10/12 07:59:43;;;;;;;18.52;10.68;;;7.50;99.90;;;;;;5080494;28;20036;-42
2022/10/12 08:02:10;;;;;;;17.70;10.73;;;7.50;99.90;;;;;;5080574;28;20028;-42
2022/10/12 08:04:36;;;;;;;20.80;11.27;;;7.70;99.90;;;;;;5076893;28;20080;-42
2022/10/12 08:07:02;;;;;;;19.33;11.40;;;7.80;99.90;;;;;;5079804;28;20103;-42
2022/10/12 08:09:28;;;;;;;19.27;10.77;;;7.60;99.90;;;;;;5078951;28;20054;-42
2022/10/12 08:11:54;;;;;;;17.08;9.68;;;7.90;99.90;;;;;;5079213;28;23209;-45
2022/10/12 08:14:20;;;;;;;21.13;9.73;;;8.00;99.90;;;;;;5077374;28;20071;-43
2022/10/12 08:16:46;;;;;;;19.67;10.77;;;8.10;99.90;;;;;;5078952;28;20063;-42
2022/10/12 08:19:12;;;;;;;20.45;9.75;;;8.20;99.90;;;;;;5078137;28;20036;-42
2022/10/12 08:21:40;;;;;;;17.20;9.50;;;8.30;99.90;;;;;;5079014;28;20024;-42
2022/10/12 08:24:06;;;;;;;19.27;10.23;;;8.50;99.90;;;;;;5078133;28;20040;-42
2022/10/12 08:26:32;;;;;;;17.95;9.75;;;8.60;99.90;;;;;;5078487;28;20085;-42
2022/10/12 08:28:58;;;;;;;23.10;9.82;;;8.80;99.90;;;;;;5079643;28;20459;-42
2022/10/12 08:31:23;;;;;;;24.75;9.65;;;8.90;99.90;;;;;;5078397;28;20028;-43
2022/10/12 08:33:49;;;;;;;18.77;9.85;;;9.00;99.90;;;;;;5079341;28;20079;-42
2022/10/12 08:36:15;;;;;;;18.38;9.52;;;9.20;99.90;;;;;;5078931;28;20055;-41
2022/10/12 08:38:42;;;;;;;24.77;9.23;;;9.20;99.90;;;;;;5078264;28;20042;-42
2022/10/12 08:41:16;;;;;;;21.95;9.05;;;9.50;99.90;;;;;;5079114;28;20043;-42
2022/10/12 08:43:50;;;;;;;18.95;8.88;;;9.50;99.90;;;;;;5076516;28;20456;-42
2022/10/12 08:46:18;;;;;;;;;;;9.60;99.90;;;;;;5077645;28;20067;-43
2022/10/12 08:49:09;;;;;;;20.85;9.10;;;9.70;99.90;;;;;;5077669;28;19923;-44
2022/10/12 08:51:44;;;;;;;22.15;9.38;;;10.00;99.90;;;;;;5078791;28;20040;-42
2022/10/12 08:54:15;;;;;;;23.95;8.80;;;10.10;99.90;;;;;;5076824;28;20043;-42
2022/10/12 08:56:41;;;;;;;17.27;8.20;;;10.30;99.90;;;;;;5078135;28;20169;-42
2022/10/12 08:59:16;;;;;;;15.27;7.90;;;10.30;99.90;;;;;;5078138;28;20047;-43
2022/10/12 09:02:15;;;;;;;18.40;8.13;;;10.50;99.90;;;;;;5078684;28;20043;-43
2022/10/12 09:04:55;;;;;;;16.02;7.10;;;10.60;99.90;;;;;;5081060;28;20418;-43
2022/10/12 09:07:46;;;;;;;18.05;6.68;;;10.70;99.90;;;;;;5082058;28;20070;-44
2022/10/12 09:10:37;;;;;;;11.45;6.25;;;10.80;99.90;;;;;;5082558;28;20085;-43
2022/10/12 09:13:16;;;;;;;16.10;6.78;;;10.90;99.90;;;;;;5082797;28;20481;-42
2022/10/12 09:15:50;;;;;;;16.02;7.15;;;11.00;99.90;;;;;;5083473;28;20044;-43
2022/10/12 09:18:21;;;;;;;15.82;7.20;;;11.20;99.90;;;;;;5083905;28;20487;-42
2022/10/12 09:20:50;;;;;;;17.15;6.85;;;11.20;99.90;;;;;;5084791;28;20043;-42
2022/10/12 09:23:25;;;;;;;14.23;6.75;;;11.40;99.90;;;;;;5091002;28;20035;-45
2022/10/12 09:26:01;;;;;;;13.65;6.47;;;11.40;99.90;;;;;;5085567;28;20044;-43
2022/10/12 09:28:35;;;;;;;12.90;6.35;;;11.50;99.90;;;;;;5089707;28;20115;-43
2022/10/12 09:31:31;;;;;;;17.00;6.53;;;11.50;99.90;;;;;;5090737;28;20096;-43
2022/10/12 09:33:59;;;;;;;13.45;6.63;;;11.60;99.90;;;;;;5091768;28;20047;-43
2022/10/12 09:36:28;;;;;;;17.15;7.28;;;11.70;99.90;;;;;;5092530;28;20038;-45
2022/10/12 09:38:55;;;;;;;14.93;7.00;;;11.70;99.90;;;;;;5092823;28;20032;-42
2022/10/12 09:41:29;;;;;;;16.30;6.50;;;11.70;99.90;;;;;;5090877;28;20042;-44
2022/10/12 09:43:58;;;;;;;11.40;5.65;;;11.80;99.90;;;;;;5092206;28;20028;-43
2022/10/12 09:46:40;;;;;;;18.00;6.70;;;11.80;99.90;;;;;;5092232;28;20034;-44
2022/10/12 09:49:06;;;;;;;18.73;6.70;;;11.90;99.90;;;;;;5092356;28;20074;-44
2022/10/12 09:51:32;;;;;;;14.35;6.28;;;12.00;99.90;;;;;;5092469;28;20075;-43
2022/10/12 09:54:02;;;;;;;11.82;5.50;;;12.00;99.90;;;;;;5092641;28;20036;-43
2022/10/12 09:56:36;;;;;;;14.25;5.90;;;12.10;99.90;;;;;;5092389;28;20032;-43
2022/10/12 09:59:06;;;;;;;15.65;6.30;;;12.10;99.90;;;;;;5092172;28;20040;-46
2022/10/12 10:01:34;;;;;;;14.13;5.50;;;12.30;99.90;;;;;;5093101;28;20423;-43
2022/10/12 10:04:13;;;;;;;15.18;6.40;;;12.30;99.90;;;;;;5093099;28;20459;-43
2022/10/12 10:06:42;;;;;;;18.00;6.28;;;12.30;99.90;;;;;;5092241;28;20032;-44
2022/10/12 10:09:31;;;;;;;16.05;5.80;;;12.40;99.90;;;;;;5092089;28;20116;-45
2022/10/12 10:12:28;;;;;;;12.10;6.28;;;12.50;99.90;;;;;;5092050;28;20032;-44
2022/10/12 10:14:56;;;;;;;13.23;6.03;;;12.60;99.90;;;;;;5089907;28;20490;-45
2022/10/12 10:17:28;;;;;;;13.15;6.00;;;12.80;99.90;;;;;;5091720;28;20292;-42
2022/10/12 10:19:56;;;;;;;13.70;5.78;;;13.00;99.90;;;;;;5086444;28;20044;-41
2022/10/12 10:22:23;;;;;;;13.50;5.43;;;13.20;99.90;;;;;;5085191;28;20032;-46
2022/10/12 10:24:55;;;;;;;11.50;5.55;;;13.50;99.90;;;;;;5087282;28;20051;-43
2022/10/12 10:27:39;;;;;;;14.05;5.85;;;13.70;99.90;;;;;;5078402;28;20390;-41
2022/10/12 10:30:20;;;;;;;14.95;5.55;;;13.80;99.90;;;;;;5088396;28;20567;-43
2022/10/12 10:32:46;;;;;;;13.52;5.57;;;14.00;99.90;;;;;;5079298;28;20091;-42
2022/10/12 10:35:31;;;;;;;13.73;5.53;;;14.10;99.90;;;;;;5082419;28;20661;-42
2022/10/12 10:38:16;;;;;;;13.90;6.32;;;14.10;99.90;;;;;;5084017;28;20043;-44
2022/10/12 10:41:04;;;;;;;12.23;5.43;;;14.20;99.90;;;;;;5078965;28;20075;-43
2022/10/12 10:43:49;;;;;;;13.27;4.75;;;14.20;99.90;;;;;;5082931;28;20040;-42
2022/10/12 10:46:35;;;;;;;13.50;5.00;;;14.30;99.90;;;;;;5083779;28;20123;-44
2022/10/12 10:49:05;;;;;;;9.75;4.25;;;14.30;99.90;;;;;;5083800;28;20052;-42
2022/10/12 10:51:51;;;;;;;14.50;5.32;;;14.30;99.90;;;;;;5085287;28;20032;-42
2022/10/12 10:54:27;;;;;;;16.05;5.57;;;14.50;99.90;;;;;;5085141;28;20038;-45
2022/10/12 10:57:02;;;;;;;13.95;5.22;;;14.50;99.90;;;;;;5088184;28;20081;-42
2022/10/12 10:59:50;;;;;;;11.73;4.65;;;14.50;99.90;;;;;;5084926;28;20119;-42
2022/10/12 11:02:27;;;;;;;11.25;4.90;;;14.60;99.90;;;;;;5081849;28;20475;-42
2022/10/12 11:05:06;;;;;;;10.65;5.25;;;14.70;99.90;;;;;;5085655;28;20040;-42
2022/10/12 11:07:42;;;;;;;10.30;5.10;;;14.70;99.90;;;;;;5080826;28;20036;-42
2022/10/12 11:10:39;;;;;;;11.07;5.13;;;14.80;99.90;;;;;;5080504;28;20068;-42
2022/10/12 11:13:37;;;;;;;12.90;4.93;;;15.00;99.90;;;;;;5079674;28;20083;-42
2022/10/12 11:16:25;;;;;;;10.70;4.22;;;15.20;99.90;;;;;;5078117;28;20036;-45
2022/10/12 11:19:11;;;;;;;12.55;4.13;;;15.40;99.90;;;;;;5080728;28;20380;-44
2022/10/12 11:21:59;;;;;;;11.63;4.22;;;15.80;99.90;;;;;;5082749;28;20036;-41
2022/10/12 11:24:38;;;;;;;10.35;4.25;;;15.90;99.90;;;;;;5084439;28;20379;-43
2022/10/12 11:27:09;;;;;;;11.10;4.68;;;16.10;99.90;;;;;;5085211;28;20036;-46
2022/10/12 11:29:36;;;;;;;10.25;4.43;;;16.30;99.90;;;;;;5089189;28;20035;-45
2022/10/12 11:32:06;;;;;;;10.50;3.80;;;16.50;99.90;;;;;;5089146;28;20093;-43
2022/10/12 11:34:50;;;;;;;12.27;4.18;;;16.70;99.90;;;;;;5089670;28;20048;-44
2022/10/12 11:37:21;;;;;;;12.40;4.60;;;16.90;99.90;;;;;;5090775;28;20036;-43
2022/10/12 11:39:52;;;;;;;9.13;4.03;;;17.00;99.90;;;;;;5089972;28;20032;-45
2022/10/12 11:42:40;;;;;;;11.77;4.10;;;17.10;99.90;;;;;;5090536;28;20040;-45
2022/10/12 11:45:24;;;;;;;13.00;4.35;;;17.20;99.90;;;;;;5090091;28;20036;-42
2022/10/12 11:47:59;;;;;;;;;;;17.20;99.90;;;;;;5090419;28;20046;-43
2022/10/12 11:50:39;;;;;;;10.32;3.67;;;17.20;99.90;;;;;;5090531;28;19920;-43
2022/10/12 11:53:31;;;;;;;9.55;3.92;;;17.30;99.90;;;;;;5089814;28;20040;-44
2022/10/12 11:56:25;;;;;;;12.57;4.15;;;17.40;99.90;;;;;;5089748;28;20093;-42
2022/10/12 11:58:56;;;;;;;;;;;17.20;99.90;;;;;;5088242;28;20529;-44
2022/10/12 12:01:28;;;;;;;10.02;4.40;;;17.30;99.90;;;;;;5090007;28;19930;-47
2022/10/12 12:04:13;;;;;;;13.85;4.32;;;17.30;99.90;;;;;;5089833;28;20036;-43
2022/10/12 12:06:54;;;;;;;12.63;3.90;;;17.40;99.90;;;;;;5089814;28;20063;-42
2022/10/12 12:09:29;;;;;;;13.35;4.35;;;17.50;99.90;;;;;;5090065;28;20032;-42
2022/10/12 12:12:10;;;;;;;11.88;4.40;;;17.40;99.90;;;;;;5090140;28;20036;-43
2022/10/12 12:14:43;;;;;;;13.23;4.20;;;17.60;99.90;;;;;;5088993;28;20575;-47
2022/10/12 12:17:18;;;;;;;15.30;4.07;;;17.60;99.90;;;;;;5088896;28;20032;-43
2022/10/12 12:19:48;;;;;;;13.13;4.57;;;17.70;99.90;;;;;;5088694;28;20119;-43
2022/10/12 12:22:22;;;;;;;11.48;4.90;;;17.70;99.90;;;;;;5089593;28;20039;-42
2022/10/12 12:24:54;;;;;;;13.75;5.07;;;17.70;99.90;;;;;;5089825;28;21383;-44
2022/10/12 12:27:47;;;;;;;11.57;4.57;;;17.80;99.90;;;;;;5089408;28;20083;-42
2022/10/12 12:30:20;;;;;;;11.52;4.60;;;17.90;99.90;;;;;;5082852;28;20052;-42
2022/10/12 12:32:54;;;;;;;10.65;4.85;;;18.10;99.90;;;;;;5089183;28;20044;-43
2022/10/12 12:35:25;;;;;;;;;;;18.20;99.90;;;;;;5089876;28;20048;-45
2022/10/12 12:38:08;;;;;;;11.13;4.60;;;18.30;99.90;;;;;;5090234;28;19924;-43
2022/10/12 12:40:34;;;;;;;10.85;4.45;;;18.40;99.90;;;;;;5096117;28;20051;-42
2022/10/12 12:43:19;;;;;;;11.65;4.57;;;18.50;99.90;;;;;;5096238;28;20027;-44
2022/10/12 12:46:12;;;;;;;14.77;5.05;;;18.60;99.80;;;;;;5095635;28;20094;-43
2022/10/12 12:48:41;;;;;;;14.05;4.85;;;18.70;99.10;;;;;;5092213;28;20134;-43
2022/10/12 12:51:14;;;;;;;12.45;4.82;;;18.70;99.90;;;;;;5095935;28;20040;-44
2022/10/12 12:53:54;;;;;;;13.65;4.90;;;18.90;99.90;;;;;;5096204;28;20031;-45
2022/10/12 12:56:45;;;;;;;11.65;5.13;;;19.00;99.00;;;;;;5096109;28;20051;-44
2022/10/12 12:59:13;;;;;;;11.57;4.60;;;18.90;99.20;;;;;;5096109;28;20540;-42
2022/10/12 13:02:15;;;;;;;10.40;4.18;;;18.90;99.30;;;;;;5096136;28;20073;-44
2022/10/12 13:04:56;;;;;;;12.73;4.35;;;19.00;99.40;;;;;;5096050;28;20044;-43